sensor_id;sensor_type;location;lat;lon;timestamp;P1;durP1;ratioP1;P2;durP2;ratioP2
7426;SDS011;3755;59.316;18.092;2023-03-17T00:00:36;6.70;;;2.37;;
7426;SDS011;3755;59.316;18.092;2023-03-17T00:03:09;5.50;;;2.50;;
7426;SDS011;3755;59.316;18.092;2023-03-17T00:05:45;4.40;;;2.73;;
7426;SDS011;3755;59.316;18.092;2023-03-17T00:08:17;4.77;;;2.03;;
7426;SDS011;3755;59.316;18.092;2023-03-17T00:10:48;9.53;;;2.50;;
7426;SDS011;3755;59.316;18.092;2023-03-17T00:13:16;9.70;;;3.00;;
7426;SDS011;3755;59.316;18.092;2023-03-17T00:15:47;6.40;;;2.90;;
7426;SDS011;3755;59.316;18.092;2023-03-17T00:18:20;5.80;;;2.90;;
7426;SDS011;3755;59.316;18.092;2023-03-17T00:20:48;10.20;;;3.00;;
7426;SDS011;3755;59.316;18.092;2023-03-17T00:23:17;5.57;;;2.33;;
7426;SDS011;3755;59.316;18.092;2023-03-17T00:25:49;5.67;;;2.87;;
7426;SDS011;3755;59.316;18.092;2023-03-17T00:28:19;8.57;;;3.03;;
7426;SDS011;3755;59.316;18.092;2023-03-17T00:30:47;8.33;;;2.63;;
7426;SDS011;3755;59.316;18.092;2023-03-17T00:33:20;4.40;;;2.60;;
7426;SDS011;3755;59.316;18.092;2023-03-17T00:35:53;9.97;;;3.20;;
7426;SDS011;3755;59.316;18.092;2023-03-17T00:38:21;9.23;;;3.20;;
7426;SDS011;3755;59.316;18.092;2023-03-17T00:40:50;11.40;;;3.03;;
7426;SDS011;3755;59.316;18.092;2023-03-17T00:43:18;7.73;;;2.90;;
7426;SDS011;3755;59.316;18.092;2023-03-17T00:45:48;8.83;;;3.17;;
7426;SDS011;3755;59.316;18.092;2023-03-17T00:48:16;10.27;;;3.10;;
7426;SDS011;3755;59.316;18.092;2023-03-17T00:50:47;10.80;;;3.30;;
7426;SDS011;3755;59.316;18.092;2023-03-17T00:53:16;8.70;;;2.73;;
7426;SDS011;3755;59.316;18.092;2023-03-17T00:55:46;10.07;;;3.50;;
7426;SDS011;3755;59.316;18.092;2023-03-17T00:58:16;5.13;;;2.80;;
7426;SDS011;3755;59.316;18.092;2023-03-17T01:00:47;9.03;;;3.63;;
7426;SDS011;3755;59.316;18.092;2023-03-17T01:03:16;7.60;;;2.67;;
7426;SDS011;3755;59.316;18.092;2023-03-17T01:05:43;8.97;;;3.70;;
7426;SDS011;3755;59.316;18.092;2023-03-17T01:08:13;11.23;;;2.97;;
7426;SDS011;3755;59.316;18.092;2023-03-17T01:10:54;6.03;;;2.87;;
7426;SDS011;3755;59.316;18.092;2023-03-17T01:13:22;11.70;;;3.03;;
7426;SDS011;3755;59.316;18.092;2023-03-17T01:15:51;4.90;;;3.10;;
7426;SDS011;3755;59.316;18.092;2023-03-17T01:18:32;7.33;;;2.73;;
7426;SDS011;3755;59.316;18.092;2023-03-17T01:21:19;5.60;;;3.07;;
7426;SDS011;3755;59.316;18.092;2023-03-17T01:23:54;7.77;;;3.17;;
7426;SDS011;3755;59.316;18.092;2023-03-17T01:26:33;6.63;;;2.63;;
7426;SDS011;3755;59.316;18.092;2023-03-17T01:29:02;6.17;;;2.80;;
7426;SDS011;3755;59.316;18.092;2023-03-17T01:31:32;6.83;;;3.13;;
7426;SDS011;3755;59.316;18.092;2023-03-17T01:34:00;6.27;;;2.53;;
7426;SDS011;3755;59.316;18.092;2023-03-17T01:36:30;5.73;;;2.80;;
7426;SDS011;3755;59.316;18.092;2023-03-17T01:39:00;5.27;;;2.57;;
7426;SDS011;3755;59.316;18.092;2023-03-17T01:41:31;7.50;;;3.10;;
7426;SDS011;3755;59.316;18.092;2023-03-17T01:44:01;7.37;;;2.40;;
7426;SDS011;3755;59.316;18.092;2023-03-17T01:46:31;8.50;;;2.97;;
7426;SDS011;3755;59.316;18.092;2023-03-17T01:49:01;5.60;;;2.90;;
7426;SDS011;3755;59.316;18.092;2023-03-17T01:51:36;5.10;;;2.70;;
7426;SDS011;3755;59.316;18.092;2023-03-17T01:54:08;6.73;;;2.60;;
7426;SDS011;3755;59.316;18.092;2023-03-17T01:56:41;7.57;;;2.33;;
7426;SDS011;3755;59.316;18.092;2023-03-17T01:59:12;4.37;;;2.43;;
7426;SDS011;3755;59.316;18.092;2023-03-17T02:01:46;6.93;;;2.30;;
7426;SDS011;3755;59.316;18.092;2023-03-17T02:04:17;6.50;;;2.90;;
7426;SDS011;3755;59.316;18.092;2023-03-17T02:06:48;7.03;;;2.90;;
7426;SDS011;3755;59.316;18.092;2023-03-17T02:09:16;6.13;;;2.43;;
7426;SDS011;3755;59.316;18.092;2023-03-17T02:11:44;6.23;;;2.50;;
7426;SDS011;3755;59.316;18.092;2023-03-17T02:14:12;5.10;;;2.13;;
7426;SDS011;3755;59.316;18.092;2023-03-17T02:16:42;8.13;;;2.90;;
7426;SDS011;3755;59.316;18.092;2023-03-17T02:19:10;5.87;;;2.23;;
7426;SDS011;3755;59.316;18.092;2023-03-17T02:21:40;6.20;;;1.93;;
7426;SDS011;3755;59.316;18.092;2023-03-17T02:24:15;5.43;;;2.40;;
7426;SDS011;3755;59.316;18.092;2023-03-17T02:26:48;5.50;;;2.20;;
7426;SDS011;3755;59.316;18.092;2023-03-17T02:29:19;5.57;;;2.10;;
7426;SDS011;3755;59.316;18.092;2023-03-17T02:31:46;6.30;;;2.73;;
7426;SDS011;3755;59.316;18.092;2023-03-17T02:34:29;3.83;;;1.80;;
7426;SDS011;3755;59.316;18.092;2023-03-17T02:37:17;7.03;;;2.30;;
7426;SDS011;3755;59.316;18.092;2023-03-17T02:40:06;6.93;;;2.17;;
7426;SDS011;3755;59.316;18.092;2023-03-17T02:42:53;7.43;;;2.10;;
7426;SDS011;3755;59.316;18.092;2023-03-17T02:45:23;4.90;;;1.87;;
7426;SDS011;3755;59.316;18.092;2023-03-17T02:48:25;3.53;;;1.90;;
7426;SDS011;3755;59.316;18.092;2023-03-17T02:50:58;3.57;;;1.93;;
7426;SDS011;3755;59.316;18.092;2023-03-17T02:53:28;3.63;;;1.67;;
7426;SDS011;3755;59.316;18.092;2023-03-17T02:55:55;2.87;;;1.90;;
7426;SDS011;3755;59.316;18.092;2023-03-17T02:58:37;8.20;;;1.80;;
7426;SDS011;3755;59.316;18.092;2023-03-17T03:01:09;6.53;;;2.13;;
7426;SDS011;3755;59.316;18.092;2023-03-17T03:03:56;5.60;;;2.93;;
7426;SDS011;3755;59.316;18.092;2023-03-17T03:06:23;4.80;;;1.67;;
7426;SDS011;3755;59.316;18.092;2023-03-17T03:08:52;4.53;;;1.53;;
7426;SDS011;3755;59.316;18.092;2023-03-17T03:11:20;4.83;;;1.77;;
7426;SDS011;3755;59.316;18.092;2023-03-17T03:13:47;5.17;;;1.50;;
7426;SDS011;3755;59.316;18.092;2023-03-17T03:16:15;4.60;;;1.80;;
7426;SDS011;3755;59.316;18.092;2023-03-17T03:18:42;2.63;;;1.50;;
7426;SDS011;3755;59.316;18.092;2023-03-17T03:21:09;3.73;;;1.67;;
7426;SDS011;3755;59.316;18.092;2023-03-17T03:23:37;4.90;;;2.00;;
7426;SDS011;3755;59.316;18.092;2023-03-17T03:26:06;3.03;;;1.57;;
7426;SDS011;3755;59.316;18.092;2023-03-17T03:28:34;5.63;;;1.60;;
7426;SDS011;3755;59.316;18.092;2023-03-17T03:31:02;4.00;;;1.60;;
7426;SDS011;3755;59.316;18.092;2023-03-17T03:33:30;3.23;;;1.90;;
7426;SDS011;3755;59.316;18.092;2023-03-17T03:35:57;3.30;;;1.80;;
7426;SDS011;3755;59.316;18.092;2023-03-17T03:38:25;3.27;;;1.63;;
7426;SDS011;3755;59.316;18.092;2023-03-17T03:40:52;6.83;;;2.10;;
7426;SDS011;3755;59.316;18.092;2023-03-17T03:43:24;3.77;;;1.73;;
7426;SDS011;3755;59.316;18.092;2023-03-17T03:45:54;2.47;;;1.90;;
7426;SDS011;3755;59.316;18.092;2023-03-17T03:48:26;9.63;;;2.00;;
7426;SDS011;3755;59.316;18.092;2023-03-17T03:51:16;4.53;;;2.00;;
7426;SDS011;3755;59.316;18.092;2023-03-17T03:53:44;4.10;;;1.93;;
7426;SDS011;3755;59.316;18.092;2023-03-17T03:56:12;5.03;;;1.70;;
7426;SDS011;3755;59.316;18.092;2023-03-17T03:58:41;2.77;;;1.57;;
7426;SDS011;3755;59.316;18.092;2023-03-17T04:01:09;2.57;;;1.50;;
7426;SDS011;3755;59.316;18.092;2023-03-17T04:03:36;5.33;;;1.60;;
7426;SDS011;3755;59.316;18.092;2023-03-17T04:06:05;4.47;;;1.70;;
7426;SDS011;3755;59.316;18.092;2023-03-17T04:08:33;6.93;;;2.00;;
7426;SDS011;3755;59.316;18.092;2023-03-17T04:11:00;6.43;;;2.00;;
7426;SDS011;3755;59.316;18.092;2023-03-17T04:13:28;4.07;;;1.57;;
7426;SDS011;3755;59.316;18.092;2023-03-17T04:15:57;5.33;;;1.63;;
7426;SDS011;3755;59.316;18.092;2023-03-17T04:18:25;2.43;;;1.20;;
7426;SDS011;3755;59.316;18.092;2023-03-17T04:21:08;7.40;;;1.70;;
7426;SDS011;3755;59.316;18.092;2023-03-17T04:23:51;7.17;;;2.20;;
7426;SDS011;3755;59.316;18.092;2023-03-17T04:26:21;4.10;;;1.77;;
7426;SDS011;3755;59.316;18.092;2023-03-17T04:28:49;5.30;;;1.80;;
7426;SDS011;3755;59.316;18.092;2023-03-17T04:31:26;2.67;;;1.50;;
7426;SDS011;3755;59.316;18.092;2023-03-17T04:33:54;6.23;;;2.50;;
7426;SDS011;3755;59.316;18.092;2023-03-17T04:36:22;3.87;;;1.60;;
7426;SDS011;3755;59.316;18.092;2023-03-17T04:38:50;4.57;;;1.80;;
7426;SDS011;3755;59.316;18.092;2023-03-17T04:41:17;3.27;;;1.60;;
7426;SDS011;3755;59.316;18.092;2023-03-17T04:43:45;4.00;;;1.63;;
7426;SDS011;3755;59.316;18.092;2023-03-17T04:46:13;4.53;;;1.70;;
7426;SDS011;3755;59.316;18.092;2023-03-17T04:48:42;3.87;;;1.63;;
7426;SDS011;3755;59.316;18.092;2023-03-17T04:51:09;2.80;;;1.30;;
7426;SDS011;3755;59.316;18.092;2023-03-17T04:53:37;10.27;;;1.90;;
7426;SDS011;3755;59.316;18.092;2023-03-17T04:56:04;3.30;;;1.30;;
7426;SDS011;3755;59.316;18.092;2023-03-17T04:58:32;5.03;;;1.60;;
7426;SDS011;3755;59.316;18.092;2023-03-17T05:01:00;3.73;;;1.40;;
7426;SDS011;3755;59.316;18.092;2023-03-17T05:03:29;3.63;;;1.67;;
7426;SDS011;3755;59.316;18.092;2023-03-17T05:06:00;2.73;;;1.60;;
7426;SDS011;3755;59.316;18.092;2023-03-17T05:08:29;5.97;;;1.23;;
7426;SDS011;3755;59.316;18.092;2023-03-17T05:10:59;4.63;;;1.57;;
7426;SDS011;3755;59.316;18.092;2023-03-17T05:13:28;3.70;;;1.40;;
7426;SDS011;3755;59.316;18.092;2023-03-17T05:15:55;8.13;;;1.60;;
7426;SDS011;3755;59.316;18.092;2023-03-17T05:18:24;2.70;;;1.20;;
7426;SDS011;3755;59.316;18.092;2023-03-17T05:20:52;9.10;;;2.20;;
7426;SDS011;3755;59.316;18.092;2023-03-17T05:23:24;3.43;;;1.67;;
7426;SDS011;3755;59.316;18.092;2023-03-17T05:25:54;2.73;;;1.40;;
7426;SDS011;3755;59.316;18.092;2023-03-17T05:28:22;3.53;;;1.77;;
7426;SDS011;3755;59.316;18.092;2023-03-17T05:30:50;7.63;;;1.83;;
7426;SDS011;3755;59.316;18.092;2023-03-17T05:33:19;2.47;;;1.20;;
7426;SDS011;3755;59.316;18.092;2023-03-17T05:35:47;5.37;;;1.60;;
7426;SDS011;3755;59.316;18.092;2023-03-17T05:38:14;3.07;;;1.23;;
7426;SDS011;3755;59.316;18.092;2023-03-17T05:40:43;3.50;;;1.43;;
7426;SDS011;3755;59.316;18.092;2023-03-17T05:43:19;7.67;;;3.07;;
7426;SDS011;3755;59.316;18.092;2023-03-17T05:45:46;3.17;;;1.50;;
7426;SDS011;3755;59.316;18.092;2023-03-17T05:48:14;2.53;;;1.90;;
7426;SDS011;3755;59.316;18.092;2023-03-17T05:50:42;3.83;;;1.10;;
7426;SDS011;3755;59.316;18.092;2023-03-17T05:53:09;3.10;;;1.47;;
7426;SDS011;3755;59.316;18.092;2023-03-17T05:55:36;4.97;;;1.33;;
7426;SDS011;3755;59.316;18.092;2023-03-17T06:01:09;1.47;;;1.30;;
7426;SDS011;3755;59.316;18.092;2023-03-17T06:03:47;3.10;;;1.07;;
7426;SDS011;3755;59.316;18.092;2023-03-17T06:06:16;2.80;;;1.10;;
7426;SDS011;3755;59.316;18.092;2023-03-17T06:08:57;4.93;;;1.00;;
7426;SDS011;3755;59.316;18.092;2023-03-17T06:11:45;2.23;;;0.90;;
7426;SDS011;3755;59.316;18.092;2023-03-17T06:14:29;6.20;;;1.43;;
7426;SDS011;3755;59.316;18.092;2023-03-17T06:17:05;6.80;;;1.93;;
7426;SDS011;3755;59.316;18.092;2023-03-17T06:20:08;2.43;;;1.10;;
7426;SDS011;3755;59.316;18.092;2023-03-17T06:22:51;3.20;;;1.03;;
7426;SDS011;3755;59.316;18.092;2023-03-17T06:25:33;2.40;;;0.90;;
7426;SDS011;3755;59.316;18.092;2023-03-17T06:28:12;1.17;;;0.77;;
7426;SDS011;3755;59.316;18.092;2023-03-17T06:31:03;2.77;;;1.20;;
7426;SDS011;3755;59.316;18.092;2023-03-17T06:33:38;2.73;;;1.00;;
7426;SDS011;3755;59.316;18.092;2023-03-17T07:06:47;2.10;;;0.90;;
7426;SDS011;3755;59.316;18.092;2023-03-17T07:09:53;2.00;;;1.10;;
7426;SDS011;3755;59.316;18.092;2023-03-17T07:16:35;2.13;;;1.00;;
7426;SDS011;3755;59.316;18.092;2023-03-17T10:50:37;4.60;;;1.10;;
7426;SDS011;3755;59.316;18.092;2023-03-17T10:56:17;3.00;;;1.10;;
7426;SDS011;3755;59.316;18.092;2023-03-17T11:47:30;9.33;;;1.97;;
7426;SDS011;3755;59.316;18.092;2023-03-17T11:51:14;4.00;;;1.23;;
7426;SDS011;3755;59.316;18.092;2023-03-17T11:57:16;3.10;;;0.90;;
7426;SDS011;3755;59.316;18.092;2023-03-17T12:00:44;7.83;;;1.30;;
7426;SDS011;3755;59.316;18.092;2023-03-17T12:04:14;12.43;;;1.73;;
7426;SDS011;3755;59.316;18.092;2023-03-17T12:07:47;4.97;;;1.63;;
7426;SDS011;3755;59.316;18.092;2023-03-17T15:53:53;6.77;;;2.60;;
7426;SDS011;3755;59.316;18.092;2023-03-17T21:57:57;15.60;;;7.00;;
7426;SDS011;3755;59.316;18.092;2023-03-17T22:00:56;13.37;;;6.43;;
7426;SDS011;3755;59.316;18.092;2023-03-17T22:03:41;12.67;;;7.43;;
7426;SDS011;3755;59.316;18.092;2023-03-17T22:06:54;15.10;;;7.93;;
7426;SDS011;3755;59.316;18.092;2023-03-17T22:10:14;13.20;;;6.47;;
7426;SDS011;3755;59.316;18.092;2023-03-17T22:58:20;11.20;;;7.00;;
7426;SDS011;3755;59.316;18.092;2023-03-17T23:01:05;13.80;;;6.80;;
7426;SDS011;3755;59.316;18.092;2023-03-17T23:04:06;17.77;;;7.03;;
7426;SDS011;3755;59.316;18.092;2023-03-17T23:06:38;15.37;;;7.93;;
7426;SDS011;3755;59.316;18.092;2023-03-17T23:09:20;12.87;;;7.73;;
7426;SDS011;3755;59.316;18.092;2023-03-17T23:11:48;18.03;;;8.60;;
7426;SDS011;3755;59.316;18.092;2023-03-17T23:14:33;14.47;;;7.40;;
7426;SDS011;3755;59.316;18.092;2023-03-17T23:17:57;15.73;;;7.77;;
7426;SDS011;3755;59.316;18.092;2023-03-17T23:20:29;19.03;;;8.73;;
7426;SDS011;3755;59.316;18.092;2023-03-17T23:23:10;20.27;;;7.80;;
7426;SDS011;3755;59.316;18.092;2023-03-17T23:25:53;16.40;;;7.90;;
7426;SDS011;3755;59.316;18.092;2023-03-17T23:28:26;15.60;;;7.27;;
7426;SDS011;3755;59.316;18.092;2023-03-17T23:30:55;16.17;;;7.23;;
7426;SDS011;3755;59.316;18.092;2023-03-17T23:33:37;13.10;;;7.50;;
7426;SDS011;3755;59.316;18.092;2023-03-17T23:36:05;17.97;;;8.27;;
7426;SDS011;3755;59.316;18.092;2023-03-17T23:38:33;17.10;;;7.70;;
7426;SDS011;3755;59.316;18.092;2023-03-17T23:41:15;15.90;;;8.00;;
7426;SDS011;3755;59.316;18.092;2023-03-17T23:43:43;18.33;;;7.67;;
7426;SDS011;3755;59.316;18.092;2023-03-17T23:46:14;16.57;;;8.07;;
7426;SDS011;3755;59.316;18.092;2023-03-17T23:48:57;16.30;;;7.40;;
7426;SDS011;3755;59.316;18.092;2023-03-17T23:51:32;12.53;;;7.10;;
7426;SDS011;3755;59.316;18.092;2023-03-17T23:54:00;16.97;;;8.27;;
7426;SDS011;3755;59.316;18.092;2023-03-17T23:56:31;14.13;;;7.53;;
7426;SDS011;3755;59.316;18.092;2023-03-17T23:59:01;14.93;;;7.67;;
